createdAt,value
2018-05-31T00:01:43.734Z,12.5
2018-05-31T00:11:43.032Z,12.7
2018-05-31T00:21:42.150Z,13
2018-05-31T00:31:41.443Z,12.9
2018-05-31T00:41:40.591Z,12.9
2018-05-31T00:51:39.826Z,13.1
2018-05-31T01:01:39.024Z,13.1
2018-05-31T01:11:38.386Z,13
2018-05-31T01:21:37.512Z,13
2018-05-31T01:31:36.984Z,12.7
2018-05-31T01:41:35.916Z,13.2
2018-05-31T01:51:35.290Z,13
2018-05-31T02:01:34.347Z,12.5
2018-05-31T02:11:33.858Z,13.1
2018-05-31T02:21:32.770Z,12.9
2018-05-31T02:31:32.007Z,12.5
2018-05-31T02:41:31.532Z,12.9
2018-05-31T02:51:30.743Z,12.8
2018-05-31T03:01:29.690Z,13
2018-05-31T03:11:28.855Z,13
2018-05-31T03:21:28.154Z,13.1
2018-05-31T03:31:27.627Z,13.5
2018-05-31T03:41:26.585Z,13.8
2018-05-31T03:51:25.769Z,14
2018-05-31T04:01:25.279Z,14.3
2018-05-31T04:11:24.183Z,14.5
2018-05-31T04:21:23.454Z,14
2018-05-31T04:31:22.680Z,14.1
2018-05-31T04:41:22.024Z,14.6
2018-05-31T04:51:21.067Z,14.3
2018-05-31T05:01:20.280Z,14.1
2018-05-31T05:11:19.508Z,14.6
2018-05-31T05:21:18.796Z,14.4
2018-05-31T05:31:17.951Z,13.9
2018-05-31T05:41:17.220Z,14.4
2018-05-31T05:51:16.968Z,13.9
2018-05-31T06:01:15.896Z,14.6
2018-05-31T06:11:15.127Z,13.9
2018-05-31T06:21:14.410Z,14.7
2018-05-31T06:31:13.571Z,14.1
2018-05-31T06:41:12.594Z,14.2
2018-05-31T06:51:11.693Z,14.4
2018-05-31T07:01:10.904Z,13.8
2018-05-31T07:11:10.202Z,13.8
2018-05-31T07:21:09.634Z,14.7
2018-05-31T07:31:08.826Z,14.3
2018-05-31T07:41:07.934Z,14.4
2018-05-31T07:51:06.995Z,14.6
2018-05-31T08:01:06.232Z,13.8
2018-05-31T08:11:05.609Z,14
2018-05-31T08:21:04.676Z,14.1
2018-05-31T08:31:03.949Z,14.3
2018-05-31T08:41:03.383Z,14.4
2018-05-31T08:51:02.327Z,14.6
2018-05-31T09:01:01.533Z,14
2018-05-31T09:11:00.751Z,14.1
2018-05-31T09:21:00.154Z,14.2
2018-05-31T09:30:59.243Z,14.4
2018-05-31T09:40:58.401Z,14.3
2018-05-31T09:50:58.063Z,14
2018-05-31T10:00:56.850Z,14.4
2018-05-31T10:10:56.091Z,14.7
2018-05-31T10:20:55.297Z,14.2
2018-05-31T10:30:54.492Z,14.3
2018-05-31T10:40:53.774Z,14.2
2018-05-31T10:50:52.940Z,14.4
2018-05-31T11:00:52.163Z,14
2018-05-31T11:10:51.440Z,14.6
2018-05-31T11:20:50.637Z,14
2018-05-31T11:30:49.835Z,14.5
2018-05-31T11:40:49.026Z,14.2
2018-05-31T11:50:48.301Z,14
2018-05-31T12:00:47.772Z,13.9
2018-05-31T12:10:46.765Z,14.6
2018-05-31T12:20:46.196Z,14.3
2018-05-31T12:30:45.174Z,14.6
2018-05-31T12:40:44.627Z,14.7
2018-05-31T12:50:43.835Z,13.9
2018-05-31T13:00:42.797Z,14
2018-05-31T13:10:42.623Z,14.6
2018-05-31T13:20:41.219Z,14.2
2018-05-31T13:30:40.504Z,14.2
2018-05-31T13:40:39.716Z,14.4
2018-05-31T13:50:39.225Z,14.2
2018-05-31T14:00:38.377Z,13.8
2018-05-31T14:10:37.368Z,13.6
2018-05-31T14:20:36.845Z,13.9
2018-05-31T14:30:35.803Z,13.9
2018-05-31T14:40:35.251Z,14.6
2018-05-31T14:50:34.186Z,13.9
2018-05-31T15:00:33.759Z,14.7
2018-05-31T15:10:32.689Z,14
2018-05-31T15:20:32.154Z,14.5
2018-05-31T15:30:31.196Z,14
2018-05-31T15:40:30.300Z,13.4
2018-05-31T15:50:29.560Z,13
2018-05-31T16:00:28.717Z,13.2
2018-05-31T16:10:28.291Z,13.2
2018-05-31T16:20:27.188Z,12.6
2018-05-31T16:30:26.712Z,12.5
2018-05-31T16:40:25.916Z,12.8
2018-05-31T16:50:24.935Z,12.6
2018-05-31T17:00:24.129Z,12.7
2018-05-31T17:10:23.311Z,12.7
2018-05-31T17:20:22.575Z,13.1
2018-05-31T17:30:21.858Z,12.5
2018-05-31T17:40:20.955Z,13
2018-05-31T17:50:20.288Z,13.2
2018-05-31T18:00:19.401Z,13.1
2018-05-31T18:10:19.221Z,12.7
2018-05-31T18:20:18.164Z,12.9
2018-05-31T18:30:17.076Z,13
2018-05-31T18:40:16.661Z,12.6
2018-05-31T18:50:15.570Z,12.7
2018-05-31T19:00:14.737Z,12.6
2018-05-31T19:10:13.976Z,12.5
2018-05-31T19:40:11.622Z,12.6
2018-05-31T19:50:10.900Z,12.6
2018-05-31T20:00:10.186Z,12.9
2018-05-31T20:10:09.287Z,12.7
2018-05-31T20:20:08.531Z,12.8
2018-05-31T20:30:07.763Z,12.5
2018-05-31T20:40:06.967Z,13.1
2018-05-31T20:50:06.342Z,12.9
2018-05-31T21:00:05.400Z,13.1
2018-05-31T21:10:04.667Z,12.5
2018-05-31T21:20:03.863Z,13
2018-05-31T21:30:03.380Z,13.1
2018-05-31T21:40:02.350Z,12.7
2018-05-31T21:50:01.501Z,12.8
2018-05-31T22:00:00.740Z,13
2018-05-31T22:09:59.956Z,12.9
2018-05-31T22:19:59.189Z,13.1
2018-05-31T22:29:58.396Z,13.1
2018-05-31T22:39:57.598Z,12.7
2018-05-31T22:49:56.872Z,13.2
2018-05-31T22:59:56.035Z,12.9
2018-05-31T23:09:55.366Z,12.6
2018-05-31T23:19:54.536Z,12.8
2018-05-31T23:29:53.706Z,12.9
2018-05-31T23:39:52.963Z,13.1
2018-05-31T23:49:52.158Z,12.6
2018-05-31T23:59:51.370Z,13.2
